Thunder radar more information blitzortung!


Radar de pluja more information rain snow radar


Visita la nostra xarxa de llocs de meteo:

Template documentation
and downloads

And another site



No particular awareness of the weather is required.    There are no Weather-warnings

Pagina Historial Weather Underground text

Diari Resum May 6, 2017 Unitats:  Imperial    Mètric   Tant
« Previous Dia
SegĂźent Dia »
Diari Setmana Mensual Anual Personalitzada
  Maxima: Minima: Media:
Temperatura: TemperatureC °F 11.6 °F 20.3 °F
Punt de rosada: DewpointC °F 1.0 °F 6.4 °F
Humitat: Humidity % 22 % 43 %
Wind Speed: WindSpeedKMH mph 0.0 mph 9.6 mph
RĂ fegues de vent: WindSpeedGustKMH mph - -
Vent:- - SSW
Pression baro: PressurehPa in 1010.0 in -
Precipitacions: 0.0 in    
Historical Graphs
 
 
Dades de taula per May 6, 2017
Temps Temperatura Punt de rosada Pression baro Vent Wind Speed RĂ fegues de vent Humitat Rainfall Rate (Hourly)
TemperatureC °F DewpointC °F PressurehPa in Calm     Humidity % HourlyPrecipMM in
00:04 16.0 °F 6.9 °F 1010.7 in East 5.6 mph 5.6 mph 55 % 0.0 in
00:05 13.9 °F 7.7 °F 1010.0 in WSW 4.8 mph 6.4 mph 66 % 0.0 in
00:15 14.3 °F 8.1 °F 1010.0 in West 9.7 mph 17.7 mph 66 % 0.0 in
00:25 14.4 °F 7.9 °F 1010.0 in WSW 4.8 mph 8.0 mph 65 % 0.0 in
00:35 14.4 °F 7.9 °F 1010.0 in West 1.6 mph 8.0 mph 65 % 0.0 in
00:45 14.3 °F 7.8 °F 1010.0 in West 3.2 mph 4.8 mph 65 % 0.0 in
00:55 14.3 °F 7.8 °F 1010.0 in WSW 4.8 mph 6.4 mph 65 % 0.0 in
01:05 14.4 °F 8.1 °F 1010.0 in WSW 1.6 mph 3.2 mph 66 % 0.0 in
01:15 14.5 °F 8.2 °F 1010.0 in WSW 3.2 mph 6.4 mph 66 % 0.0 in
01:25 14.6 °F 8.6 °F 1010.0 in WSW 3.2 mph 9.7 mph 67 % 0.0 in
01:35 14.7 °F 8.8 °F 1010.0 in WSW 9.7 mph 11.3 mph 68 % 0.0 in
01:45 14.8 °F 8.9 °F 1010.0 in WSW 3.2 mph 8.0 mph 68 % 0.0 in
01:55 14.6 °F 8.8 °F 1010.0 in WSW 3.2 mph 4.8 mph 68 % 0.0 in
02:05 14.4 °F 8.6 °F 1010.0 in WSW 3.2 mph 3.2 mph 68 % 0.0 in
02:15 14.3 °F 8.4 °F 1010.0 in SW 3.2 mph 6.4 mph 68 % 0.0 in
02:25 14.6 °F 8.6 °F 1010.0 in WSW 3.2 mph 6.4 mph 67 % 0.0 in
02:35 14.9 °F 8.6 °F 1010.0 in West 4.8 mph 6.4 mph 66 % 0.0 in
02:45 15.0 °F 8.4 °F 1010.0 in West 4.8 mph 14.5 mph 65 % 0.0 in
02:55 15.2 °F 8.7 °F 1010.0 in West 8.0 mph 8.0 mph 65 % 0.0 in
03:05 15.2 °F 8.4 °F 1010.7 in West 4.8 mph 12.9 mph 64 % 0.0 in
03:15 15.3 °F 8.5 °F 1010.7 in West 4.8 mph 4.8 mph 64 % 0.0 in
03:25 15.5 °F 8.7 °F 1010.7 in WSW 4.8 mph 6.4 mph 64 % 0.0 in
03:35 16.0 °F 9.2 °F 1010.7 in WNW 3.2 mph 4.8 mph 64 % 0.0 in
03:45 16.0 °F 8.9 °F 1010.7 in WNW 4.8 mph 12.9 mph 63 % 0.0 in
03:55 16.2 °F 8.9 °F 1011.7 in West 8.0 mph 9.7 mph 62 % 0.0 in
04:05 16.8 °F 9.5 °F 1011.7 in West 4.8 mph 6.4 mph 62 % 0.0 in
04:15 17.1 °F 9.5 °F 1011.7 in WSW 4.8 mph 6.4 mph 61 % 0.0 in
04:25 17.4 °F 9.3 °F 1011.7 in SW 4.8 mph 8.0 mph 59 % 0.0 in
04:35 17.1 °F 8.0 °F 1011.7 in West 11.3 mph 11.3 mph 55 % 0.0 in
04:45 17.3 °F 7.9 °F 1011.7 in West 4.8 mph 9.7 mph 54 % 0.0 in
04:55 17.3 °F 7.6 °F 1011.7 in WSW 9.7 mph 11.3 mph 53 % 0.0 in
05:05 17.5 °F 7.6 °F 1011.7 in WSW 9.7 mph 17.7 mph 52 % 0.0 in
05:15 18.0 °F 7.7 °F 1011.7 in West 8.0 mph 17.7 mph 51 % 0.0 in
05:25 18.3 °F 7.7 °F 1011.7 in West 9.7 mph 16.1 mph 50 % 0.0 in
05:35 18.8 °F 8.2 °F 1012.8 in West 8.0 mph 12.9 mph 50 % 0.0 in
05:45 19.4 °F 8.4 °F 1012.8 in West 4.8 mph 9.7 mph 49 % 0.0 in
05:55 19.8 °F 8.4 °F 1012.8 in WSW 8.0 mph 9.7 mph 48 % 0.0 in
06:05 20.2 °F 8.5 °F 1012.8 in West 3.2 mph 16.1 mph 47 % 0.0 in
11:10 20.1 °F 7.8 °F 1012.8 in NW 9.5 mph 9.5 mph 45 % 0.0 in
11:15 20.1 °F 7.4 °F 1013.8 in WSW 11.1 mph 11.1 mph 44 % 0.0 in
11:20 20.4 °F 7.7 °F 1013.8 in WNW 9.3 mph 9.3 mph 44 % 0.0 in
11:25 20.5 °F 7.5 °F 1013.8 in SSW 11.1 mph 11.1 mph 43 % 0.0 in
11:31 20.7 °F 7.3 °F 1012.8 in WSW 9.3 mph 9.3 mph 42 % 0.0 in
11:36 20.9 °F 7.8 °F 1012.8 in WSW 9.3 mph 9.3 mph 43 % 0.0 in
11:41 20.9 °F 7.5 °F 1013.8 in West 9.3 mph 9.3 mph 42 % 0.0 in
11:46 21.5 °F 8.1 °F 1013.8 in WNW 12.2 mph 12.2 mph 42 % 0.0 in
11:51 21.2 °F 7.4 °F 1013.8 in SW 15.1 mph 15.1 mph 41 % 0.0 in
11:56 21.2 °F 7.1 °F 1013.8 in SW 10.3 mph 10.3 mph 40 % 0.0 in
12:01 21.6 °F 7.8 °F 1013.8 in ENE 7.4 mph 7.4 mph 41 % 0.0 in
12:06 21.5 °F 7.3 °F 1013.8 in WSW 20.4 mph 20.4 mph 40 % 0.0 in
12:11 21.8 °F 7.6 °F 1013.8 in NW 13.0 mph 13.0 mph 40 % 0.0 in
12:16 21.9 °F 7.7 °F 1013.8 in SSW 11.1 mph 11.1 mph 40 % 0.0 in
12:21 21.8 °F 7.6 °F 1013.8 in East 9.3 mph 9.3 mph 40 % 0.0 in
12:26 22.0 °F 7.8 °F 1013.8 in NW 13.0 mph 13.0 mph 40 % 0.0 in
12:31 21.9 °F 7.3 °F 1013.8 in WSW 11.1 mph 11.4 mph 39 % 0.0 in
12:36 21.9 °F 7.3 °F 1013.8 in West 14.0 mph 14.0 mph 39 % 0.0 in
12:41 21.9 °F 7.3 °F 1013.8 in West 13.0 mph 13.0 mph 39 % 0.0 in
12:46 22.1 °F 7.5 °F 1013.8 in WNW 14.8 mph 14.8 mph 39 % 0.0 in
12:51 22.1 °F 7.5 °F 1013.8 in West 14.8 mph 14.8 mph 39 % 0.0 in
12:56 22.1 °F 7.1 °F 1012.8 in West 20.4 mph 20.4 mph 38 % 0.0 in
13:01 22.2 °F 7.2 °F 1012.8 in WSW 13.7 mph 13.7 mph 38 % 0.0 in
13:06 22.4 °F 7.4 °F 1012.8 in NNW 18.0 mph 18.0 mph 38 % 0.0 in
13:11 22.0 °F 6.2 °F 1013.8 in WNW 13.0 mph 13.0 mph 36 % 0.0 in
13:16 22.1 °F 6.7 °F 1013.8 in SW 16.1 mph 16.1 mph 37 % 0.0 in
13:21 22.2 °F 6.8 °F 1013.8 in WSW 13.0 mph 13.0 mph 37 % 0.0 in
13:26 22.3 °F 6.9 °F 1013.8 in WSW 16.7 mph 16.7 mph 37 % 0.0 in
13:31 22.5 °F 7.1 °F 1013.8 in SW 9.7 mph 9.7 mph 37 % 0.0 in
13:36 23.0 °F 7.1 °F 1013.8 in West 13.0 mph 13.0 mph 36 % 0.0 in
13:41 22.9 °F 7.4 °F 1013.8 in SW 11.1 mph 11.1 mph 37 % 0.0 in
13:46 23.3 °F 7.4 °F 1013.8 in West 9.3 mph 9.3 mph 36 % 0.0 in
13:51 23.4 °F 7.5 °F 1013.8 in WNW 16.7 mph 16.7 mph 36 % 0.0 in
13:56 23.4 °F 7.1 °F 1013.8 in WSW 14.8 mph 14.8 mph 35 % 0.0 in
14:01 23.5 °F 7.2 °F 1013.8 in WSW 13.0 mph 13.0 mph 35 % 0.0 in
14:06 23.6 °F 7.2 °F 1013.8 in South 13.0 mph 13.0 mph 35 % 0.0 in
14:11 23.7 °F 6.9 °F 1013.8 in WSW 13.0 mph 13.0 mph 34 % 0.0 in
14:16 23.6 °F 6.8 °F 1013.8 in WSW 15.8 mph 15.8 mph 34 % 0.0 in
14:21 23.9 °F 7.5 °F 1013.8 in WNW 13.0 mph 13.0 mph 35 % 0.0 in
14:26 23.6 °F 6.4 °F 1012.8 in WSW 20.4 mph 20.4 mph 33 % 0.0 in
14:31 24.2 °F 7.3 °F 1012.8 in WSW 9.3 mph 9.3 mph 34 % 0.0 in
14:36 24.1 °F 6.8 °F 1012.8 in West 13.0 mph 13.0 mph 33 % 0.0 in
14:41 23.8 °F 6.6 °F 1013.8 in WSW 18.5 mph 18.5 mph 33 % 0.0 in
14:46 24.1 °F 6.4 °F 1013.8 in WSW 16.7 mph 16.7 mph 32 % 0.0 in
14:51 24.4 °F 7.1 °F 1013.8 in West 9.3 mph 9.3 mph 33 % 0.0 in
14:56 24.7 °F 6.9 °F 1013.8 in WSW 16.7 mph 16.7 mph 32 % 0.0 in
15:01 24.6 °F 6.8 °F 1013.8 in West 16.9 mph 16.9 mph 32 % 0.0 in
15:06 24.7 °F 6.9 °F 1013.8 in WSW 16.9 mph 16.9 mph 32 % 0.0 in
15:11 24.4 °F 6.2 °F 1013.8 in West 13.0 mph 13.0 mph 31 % 0.0 in
15:16 24.7 °F 6.9 °F 1013.8 in WSW 14.8 mph 14.8 mph 32 % 0.0 in
15:21 24.8 °F 7.0 °F 1013.8 in West 13.0 mph 13.0 mph 32 % 0.0 in
15:22 24.9 °F 7.1 °F 1013.8 in WSW 13.0 mph 13.0 mph 32 % 0.0 in
15:27 24.8 °F 6.5 °F 1013.8 in WSW 16.7 mph 16.7 mph 31 % 0.0 in
15:32 24.6 °F 5.9 °F 1013.8 in WSW 13.0 mph 13.0 mph 30 % 0.0 in
15:37 24.6 °F 5.9 °F 1013.8 in SW 11.1 mph 11.1 mph 30 % 0.0 in
15:42 24.9 °F 6.6 °F 1013.8 in SW 11.1 mph 11.1 mph 31 % 0.0 in
15:47 25.4 °F 6.6 °F 1013.8 in West 12.2 mph 12.2 mph 30 % 0.0 in
15:52 25.2 °F 5.9 °F 1013.8 in WSW 13.0 mph 13.0 mph 29 % 0.0 in
15:57 25.1 °F 5.8 °F 1013.8 in West 13.0 mph 13.0 mph 29 % 0.0 in
16:02 25.2 °F 5.9 °F 1013.8 in WSW 11.1 mph 11.1 mph 29 % 0.0 in
16:07 25.7 °F 6.3 °F 1013.8 in WSW 9.3 mph 9.3 mph 29 % 0.0 in
16:12 25.3 °F 6.0 °F 1014.8 in West 13.0 mph 13.0 mph 29 % 0.0 in
16:14 25.3 °F 6.0 °F 1014.8 in SW 9.3 mph 9.3 mph 29 % 0.0 in
16:19 25.6 °F 6.2 °F 1014.8 in SW 14.8 mph 14.8 mph 29 % 0.0 in
16:24 25.4 °F 5.6 °F 1014.8 in WSW 11.4 mph 11.4 mph 28 % 0.0 in
16:29 25.4 °F 5.6 °F 1014.8 in SW 11.1 mph 11.1 mph 28 % 0.0 in
16:34 25.1 °F 5.3 °F 1014.8 in West 25.9 mph 25.9 mph 28 % 0.0 in
16:39 25.3 °F 4.9 °F 1014.8 in West 16.7 mph 16.7 mph 27 % 0.0 in
16:44 25.1 °F 4.8 °F 1014.8 in WNW 11.1 mph 11.1 mph 27 % 0.0 in
16:49 24.9 °F 5.1 °F 1014.8 in West 13.0 mph 13.0 mph 28 % 0.0 in
16:54 25.4 °F 5.1 °F 1014.8 in WNW 5.6 mph 5.8 mph 27 % 0.0 in
16:59 25.6 °F 5.2 °F 1014.8 in WSW 11.1 mph 11.1 mph 27 % 0.0 in
17:04 25.3 °F 4.4 °F 1014.8 in SW 14.8 mph 14.8 mph 26 % 0.0 in
17:09 25.3 °F 4.4 °F 1014.8 in West 11.1 mph 11.1 mph 26 % 0.0 in
17:14 25.6 °F 4.7 °F 1014.8 in SSW 9.3 mph 9.3 mph 26 % 0.0 in
17:19 25.6 °F 4.1 °F 1014.8 in WSW 18.5 mph 18.5 mph 25 % 0.0 in
17:24 25.6 °F 4.1 °F 1014.8 in WSW 9.3 mph 9.3 mph 25 % 0.0 in
17:29 25.7 °F 4.7 °F 1013.8 in SW 9.3 mph 9.3 mph 26 % 0.0 in
17:34 25.5 °F 4.0 °F 1013.8 in WSW 9.3 mph 9.3 mph 25 % 0.0 in
17:39 25.9 °F 4.3 °F 1013.8 in WSW 9.3 mph 9.3 mph 25 % 0.0 in
17:44 25.6 °F 3.5 °F 1014.8 in West 14.8 mph 14.8 mph 24 % 0.0 in
17:50 25.5 °F 2.8 °F 1014.8 in WSW 8.0 mph 19.3 mph 23 % 0.0 in
17:55 25.6 °F 3.5 °F 1014.8 in WSW 4.8 mph 11.3 mph 24 % 0.0 in
18:00 25.6 °F 3.5 °F 1014.8 in WNW 11.1 mph 11.1 mph 24 % 0.0 in
18:05 25.3 °F 2.7 °F 1014.8 in WSW 18.5 mph 18.5 mph 23 % 0.0 in
18:10 25.1 °F 2.5 °F 1014.8 in NNW 13.0 mph 13.0 mph 23 % 0.0 in
18:15 25.1 °F 2.5 °F 1014.8 in West 11.1 mph 11.1 mph 23 % 0.0 in
18:20 25.0 °F 1.8 °F 1014.8 in West 11.3 mph 16.1 mph 22 % 0.0 in
18:25 25.3 °F 2.7 °F 1014.8 in NNW 7.4 mph 7.4 mph 23 % 0.0 in
18:30 25.2 °F 2.6 °F 1014.8 in West 11.4 mph 11.4 mph 23 % 0.0 in
18:35 25.1 °F 2.5 °F 1014.8 in West 16.7 mph 16.7 mph 23 % 0.0 in
18:40 24.9 °F 2.3 °F 1014.8 in SW 7.4 mph 9.5 mph 23 % 0.0 in
18:45 25.0 °F 2.4 °F 1014.8 in West 5.6 mph 5.6 mph 23 % 0.0 in
18:50 24.9 °F 3.5 °F 1014.8 in NNW 9.5 mph 9.5 mph 25 % 0.0 in
18:55 24.8 °F 2.8 °F 1014.8 in SW 14.8 mph 14.8 mph 24 % 0.0 in
19:00 24.5 °F 2.0 °F 1015.8 in WSW 8.0 mph 16.1 mph 23 % 0.0 in
19:05 24.3 °F 1.2 °F 1015.8 in SW 13.0 mph 13.0 mph 22 % 0.0 in
19:10 24.3 °F 1.8 °F 1015.8 in SSW 9.3 mph 9.3 mph 23 % 0.0 in
19:15 24.2 °F 1.7 °F 1015.8 in WSW 9.3 mph 9.3 mph 23 % 0.0 in
19:20 24.2 °F 1.7 °F 1015.8 in West 9.3 mph 9.3 mph 23 % 0.0 in
19:25 24.1 °F 2.2 °F 1015.8 in WSW 4.8 mph 11.3 mph 24 % 0.0 in
19:30 23.8 °F 2.0 °F 1015.8 in West 9.7 mph 9.7 mph 24 % 0.0 in
19:35 23.6 °F 1.8 °F 1015.8 in SW 7.4 mph 7.4 mph 24 % 0.0 in
19:40 23.6 °F 1.8 °F 1015.8 in SW 9.3 mph 9.3 mph 24 % 0.0 in
19:45 23.3 °F 1.0 °F 1014.8 in WSW 7.4 mph 7.4 mph 23 % 0.0 in
19:50 23.2 °F 1.5 °F 1014.8 in West 3.2 mph 4.8 mph 24 % 0.0 in
19:55 23.1 °F 1.4 °F 1014.8 in WSW 1.6 mph 4.8 mph 24 % 0.0 in
20:00 22.9 °F 1.3 °F 1015.8 in SSW 1.6 mph 6.4 mph 24 % 0.0 in
20:05 20.9 °F 3.6 °F 1015.8 in ESE 12.9 mph 19.3 mph 32 % 0.0 in
20:10 20.1 °F 4.2 °F 1015.8 in ESE 8.0 mph 19.3 mph 35 % 0.0 in
20:15 19.6 °F 5.6 °F 1016.8 in NNE 18.5 mph 18.5 mph 40 % 0.0 in
20:20 19.1 °F 6.2 °F 1016.8 in NE 18.5 mph 18.5 mph 43 % 0.0 in
20:25 18.9 °F 7.0 °F 1016.8 in ENE 20.4 mph 20.4 mph 46 % 0.0 in
20:30 18.7 °F 7.2 °F 1017.8 in East 14.8 mph 14.8 mph 47 % 0.0 in
20:35 18.4 °F 7.5 °F 1017.8 in East 13.0 mph 13.0 mph 49 % 0.0 in
20:40 18.2 °F 7.3 °F 1017.8 in East 8.0 mph 19.3 mph 49 % 0.0 in
20:45 17.9 °F 7.3 °F 1017.8 in ENE 9.3 mph 9.3 mph 50 % 0.0 in
20:50 17.8 °F 7.2 °F 1017.8 in East 7.4 mph 7.4 mph 50 % 0.0 in
20:55 17.5 °F 7.2 °F 1017.8 in ENE 12.2 mph 12.2 mph 51 % 0.0 in
21:00 17.4 °F 7.2 °F 1017.8 in ENE 11.3 mph 17.7 mph 51 % 0.0 in
21:05 17.2 °F 6.9 °F 1017.8 in East 8.0 mph 16.1 mph 51 % 0.0 in
21:10 17.1 °F 7.2 °F 1017.8 in East 13.0 mph 13.0 mph 52 % 0.0 in
21:15 17.0 °F 7.1 °F 1017.8 in NNE 13.0 mph 13.0 mph 52 % 0.0 in
21:20 16.9 °F 7.3 °F 1017.8 in East 11.1 mph 11.1 mph 53 % 0.0 in
21:25 16.7 °F 7.3 °F 1017.8 in ESE 9.3 mph 9.3 mph 54 % 0.0 in
21:30 16.6 °F 7.2 °F 1017.8 in North 7.4 mph 7.4 mph 54 % 0.0 in
21:35 16.6 °F 7.2 °F 1017.8 in NNE 4.8 mph 8.0 mph 54 % 0.0 in
21:40 16.5 °F 7.2 °F 1017.8 in East 9.5 mph 9.5 mph 54 % 0.0 in
21:45 16.3 °F 6.9 °F 1018.8 in NNE 12.2 mph 12.2 mph 54 % 0.0 in
21:50 16.3 °F 7.2 °F 1018.8 in NE 8.0 mph 12.9 mph 55 % 0.0 in
21:55 16.1 °F 7.3 °F 1018.8 in ENE 9.7 mph 9.7 mph 56 % 0.0 in
22:00 16.1 °F 7.3 °F 1018.8 in ENE 4.8 mph 9.7 mph 56 % 0.0 in
22:05 16.0 °F 7.2 °F 1018.8 in NNE 9.3 mph 9.3 mph 56 % 0.0 in
22:10 16.0 °F 7.2 °F 1018.8 in ENE 7.6 mph 7.6 mph 56 % 0.0 in
22:15 16.0 °F 7.5 °F 1018.8 in NE 9.3 mph 9.3 mph 57 % 0.0 in
22:20 15.9 °F 7.4 °F 1018.8 in ENE 7.4 mph 7.4 mph 57 % 0.0 in
22:25 15.7 °F 7.4 °F 1018.8 in ENE 9.3 mph 9.3 mph 58 % 0.0 in
22:30 15.7 °F 7.4 °F 1018.8 in ENE 3.2 mph 9.7 mph 58 % 0.0 in
22:35 15.6 °F 7.3 °F 1018.8 in NE 7.4 mph 7.4 mph 58 % 0.0 in
22:40 15.5 °F 7.5 °F 1018.8 in NNE 5.6 mph 5.6 mph 59 % 0.0 in
22:45 15.4 °F 7.4 °F 1018.8 in East 5.0 mph 5.0 mph 59 % 0.0 in
22:50 15.4 °F 7.4 °F 1018.8 in ENE 3.2 mph 4.8 mph 59 % 0.0 in
22:55 15.4 °F 7.4 °F 1018.8 in ENE 3.2 mph 8.0 mph 59 % 0.0 in
23:00 15.4 °F 7.4 °F 1019.9 in SE 3.7 mph 3.7 mph 59 % 0.0 in
23:05 15.3 °F 7.3 °F 1019.9 in East 1.6 mph 4.8 mph 59 % 0.0 in
23:10 15.3 °F 7.6 °F 1019.9 in NE 5.6 mph 5.6 mph 60 % 0.0 in
23:15 15.2 °F 7.7 °F 1019.9 in East 7.4 mph 7.4 mph 61 % 0.0 in
23:20 15.2 °F 7.9 °F 1019.9 in ESE 4.2 mph 4.2 mph 62 % 0.0 in
23:25 15.1 °F 7.6 °F 1019.9 in East 5.6 mph 5.6 mph 61 % 0.0 in
23:30 15.0 °F 7.6 °F 1019.9 in East 3.9 mph 3.9 mph 61 % 0.0 in
23:35 11.8 °F 6.1 °F 1019.9 in North 1.6 mph 3.2 mph 68 % 0.0 in
23:36 14.9 °F 7.4 °F 1019.9 in NNE 3.7 mph 3.7 mph 61 % 0.0 in
23:41 14.8 °F 7.3 °F 1018.8 in ENE 4.7 mph 4.7 mph 61 % 0.0 in
23:45 11.7 °F 6.0 °F 1019.9 in Calm   1.6 mph 68 % 0.0 in
23:46 14.8 °F 7.3 °F 1018.8 in ENE 7.4 mph 7.4 mph 61 % 0.0 in
23:51 14.8 °F 7.3 °F 1018.8 in ENE 3.7 mph 3.7 mph 61 % 0.0 in
23:55 11.6 °F 6.1 °F 1018.8 in Calm   1.6 mph 69 % 0.0 in
23:56 14.8 °F 7.6 °F 1019.9 in NE 5.6 mph 5.6 mph 62 % 0.0 in
Meteo Sesrovires
Elogis d' Weather Underground - 4 mb

Guio original per  Jim McMurry - jmcmurry@mwt.net Adaptat per a la plantilla per  Wim van der Kuil - Leuven-Template.eu

Trobareu la nostra informacio del temps tambe a:

Weather Underground

AWEKAS